createdAt,value
2023-05-04T05:03:07.859Z,1.20
2023-05-04T05:08:11.504Z,1.10
2023-05-04T05:13:15.169Z,1.60
2023-05-04T05:18:20.065Z,1.67
2023-05-04T05:23:23.676Z,1.40
2023-05-04T05:28:27.182Z,1.80
2023-05-04T05:33:32.058Z,1.35
2023-05-04T05:38:35.680Z,1.50
2023-05-04T05:43:39.677Z,1.43
2023-05-04T05:48:44.682Z,1.60
2023-05-04T05:53:48.212Z,2.53
2023-05-04T05:58:52.724Z,1.35
2023-05-04T06:14:04.960Z,1.48
2023-05-04T06:19:09.843Z,2.08
2023-05-04T06:24:13.456Z,1.55
2023-05-04T06:29:16.963Z,1.87
2023-05-04T06:34:21.929Z,1.80
2023-05-04T06:39:25.474Z,1.60
2023-05-04T06:44:29.130Z,1.60
2023-05-04T06:49:34.224Z,1.77
2023-05-04T06:54:37.750Z,1.75
2023-05-04T06:59:41.219Z,1.92
2023-05-04T07:04:46.146Z,1.62
2023-05-04T07:09:50.357Z,1.62
2023-05-04T07:14:54.126Z,1.55
2023-05-04T07:19:59.116Z,1.90
2023-05-04T07:25:03.076Z,1.95
2023-05-04T07:30:08.564Z,1.60
2023-05-04T07:35:13.687Z,1.70
2023-05-04T07:40:17.258Z,1.73
2023-05-04T07:45:20.847Z,1.67
2023-05-04T07:50:25.804Z,1.70
2023-05-04T07:55:30.779Z,1.60
2023-05-04T08:00:34.302Z,1.90
2023-05-04T08:05:39.182Z,1.50
2023-05-04T08:10:42.666Z,1.70
2023-05-04T08:15:46.550Z,2.08
2023-05-04T08:20:51.417Z,1.83
2023-05-04T08:25:55.049Z,1.95
2023-05-04T08:30:58.560Z,3.00
2023-05-04T08:36:05.701Z,1.73
2023-05-04T08:41:09.220Z,1.50
2023-05-04T08:46:13.538Z,1.80
2023-05-04T08:51:19.397Z,1.52
2023-05-04T08:56:24.236Z,1.37
2023-05-04T09:01:27.944Z,1.48
2023-05-04T09:06:33.138Z,1.00
2023-05-04T09:11:36.649Z,1.10
2023-05-04T09:16:40.407Z,0.90
2023-05-04T09:21:45.394Z,0.80
2023-05-04T09:26:48.975Z,1.50
2023-05-04T09:31:53.743Z,0.88
2023-05-04T09:42:05.845Z,1.25
2023-05-04T09:47:09.660Z,0.63
2023-05-04T09:52:14.724Z,0.50
2023-05-04T09:57:20.338Z,0.60
2023-05-04T10:02:24.369Z,0.43
2023-05-04T10:07:32.151Z,0.32
2023-05-04T10:12:35.713Z,0.25
2023-05-04T10:18:02.616Z,0.97
2023-05-04T10:23:36.330Z,0.32
2023-05-04T10:28:53.713Z,1.50
2023-05-04T10:33:57.434Z,0.75
2023-05-04T10:39:02.557Z,0.20
2023-05-04T10:44:06.649Z,0.20
2023-05-04T10:49:17.782Z,0.22
2023-05-04T10:54:23.072Z,0.10
2023-05-04T10:59:26.614Z,0.20
2023-05-04T11:04:30.669Z,0.20
2023-05-04T11:09:40.439Z,0.22
2023-05-04T11:14:43.996Z,0.25
2023-05-04T11:19:50.984Z,0.20
2023-05-04T11:24:56.394Z,0.20
2023-05-04T11:30:01.489Z,0.55
2023-05-04T11:35:08.828Z,0.30
2023-05-04T11:40:16.576Z,0.30
2023-05-04T11:45:22.682Z,0.30
2023-05-04T11:50:28.648Z,0.10
2023-05-04T11:55:33.943Z,0.32
2023-05-04T12:00:39.579Z,0.32
2023-05-04T12:05:48.521Z,0.45
2023-05-04T12:10:53.987Z,0.50
2023-05-04T12:15:57.499Z,0.40
2023-05-04T12:21:12.429Z,0.47
2023-05-04T12:26:19.575Z,0.35
2023-05-04T12:31:25.359Z,0.62
2023-05-04T12:36:29.309Z,0.30
2023-05-04T12:41:34.199Z,0.37
2023-05-04T12:46:37.765Z,0.30
2023-05-04T12:51:41.493Z,0.33
2023-05-04T12:56:46.643Z,0.57
2023-05-04T13:01:50.252Z,0.45
2023-05-04T13:06:53.801Z,1.03
2023-05-04T13:11:58.690Z,0.40
2023-05-04T13:23:31.829Z,0.50
2023-05-04T13:28:39.053Z,0.25
2023-05-04T13:33:42.917Z,0.20
2023-05-04T13:38:46.917Z,0.20
2023-05-04T13:43:51.781Z,0.17
2023-05-04T13:48:56.973Z,0.30
2023-05-04T13:54:02.432Z,0.17
2023-05-04T13:59:07.646Z,0.22
2023-05-04T14:04:11.331Z,0.73
2023-05-04T14:09:14.853Z,0.10
2023-05-04T14:14:19.785Z,0.40
2023-05-04T14:19:25.482Z,0.10
2023-05-04T14:24:29.599Z,0.10
2023-05-04T14:29:34.465Z,0.20
2023-05-04T14:34:38.029Z,0.93
2023-05-04T14:39:42.445Z,0.30
2023-05-04T14:49:51.287Z,0.37
2023-05-04T14:54:54.871Z,0.20
2023-05-04T14:59:59.923Z,0.20
2023-05-04T15:05:03.784Z,0.20
2023-05-04T15:10:09.032Z,0.40
2023-05-04T15:15:14.543Z,0.40
2023-05-04T15:20:18.583Z,0.20
2023-05-04T15:25:23.889Z,0.22
2023-05-04T15:30:29.172Z,0.22
2023-05-04T15:35:32.997Z,0.22
2023-05-04T15:40:37.044Z,0.73
2023-05-04T15:45:41.950Z,0.20
2023-05-04T15:50:45.496Z,0.30
2023-05-04T15:55:49.033Z,0.60
2023-05-04T16:00:53.943Z,0.67
2023-05-04T16:05:57.991Z,0.50
2023-05-04T16:11:01.833Z,0.40
2023-05-04T16:16:08.067Z,0.62
2023-05-04T16:21:14.061Z,0.80
2023-05-04T16:26:17.556Z,0.50
2023-05-04T16:31:22.556Z,0.40
2023-05-04T16:36:26.754Z,0.30
2023-05-04T16:41:30.739Z,0.40
2023-05-04T16:46:35.817Z,1.10
2023-05-04T16:51:41.848Z,0.55
2023-05-04T16:56:45.355Z,0.30
2023-05-04T17:01:50.249Z,0.60
2023-05-04T17:06:53.917Z,0.40
2023-05-04T17:11:57.548Z,0.90
2023-05-04T17:17:02.512Z,0.97
2023-05-04T17:22:06.086Z,0.98
2023-05-04T17:27:09.768Z,0.63
2023-05-04T17:32:15.019Z,0.70
2023-05-04T17:37:18.712Z,1.15
2023-05-04T17:42:22.239Z,0.40
2023-05-04T17:47:27.292Z,0.90
2023-05-04T17:52:30.818Z,0.77
2023-05-04T17:57:34.320Z,0.40
2023-05-04T18:02:39.264Z,1.65
2023-05-04T18:07:42.842Z,0.70
2023-05-04T18:12:46.436Z,1.77
2023-05-04T18:17:51.975Z,0.37
2023-05-04T18:22:55.833Z,0.50
2023-05-04T18:27:59.615Z,0.65
2023-05-04T18:33:04.712Z,0.37
2023-05-04T18:38:08.346Z,0.62
2023-05-04T18:43:11.916Z,0.50
2023-05-04T18:48:16.973Z,1.17
2023-05-04T18:53:22.166Z,0.90
2023-05-04T18:58:25.753Z,0.47
2023-05-04T19:03:30.684Z,0.40
2023-05-04T19:08:34.747Z,0.93
2023-05-04T19:13:38.241Z,1.90
2023-05-04T19:18:43.858Z,1.33
2023-05-04T19:23:47.581Z,0.35
2023-05-04T19:28:51.127Z,0.70
2023-05-04T19:33:56.110Z,1.65
2023-05-04T19:38:59.675Z,0.80
2023-05-04T19:44:03.493Z,0.40
2023-05-04T19:49:08.431Z,0.93
2023-05-04T19:54:12.136Z,1.02
2023-05-04T19:59:15.958Z,0.53
2023-05-04T20:04:20.991Z,1.23
2023-05-04T20:09:24.656Z,0.82
2023-05-04T20:14:28.230Z,0.80
2023-05-04T20:19:33.179Z,0.70
2023-05-04T20:24:37.038Z,0.65
2023-05-04T20:29:41.039Z,0.73
2023-05-04T20:34:46.293Z,0.98
2023-05-04T20:39:52.940Z,0.40
2023-05-04T20:44:56.483Z,1.77
2023-05-04T20:50:02.109Z,0.50
2023-05-04T20:55:07.564Z,1.25
2023-05-04T21:00:12.585Z,0.40
2023-05-04T21:05:17.578Z,0.43
2023-05-04T21:10:21.552Z,1.58
2023-05-04T21:15:25.060Z,0.80
2023-05-04T21:20:29.974Z,1.25
2023-05-04T21:25:33.637Z,1.02
2023-05-04T21:30:37.265Z,0.47
2023-05-04T21:35:42.134Z,0.60
2023-05-04T21:40:45.912Z,0.73
2023-05-04T21:45:49.496Z,0.77
2023-05-04T21:50:54.390Z,1.12
2023-05-04T21:55:57.917Z,0.75
2023-05-04T22:01:01.546Z,1.30
2023-05-04T22:06:07.482Z,0.70
2023-05-04T22:11:11.525Z,0.57
2023-05-04T22:16:15.892Z,0.85
2023-05-04T22:21:21.057Z,0.50
2023-05-04T22:26:24.622Z,1.42
